Time;durP1;ratioP1;P1;durP2;ratioP2;P2;SDS_P1;SDS_P2;PMS_P1;PMS_P2;Temp;Humidity;BMP_temperature;BMP_pressure;BME280_temperature;BME280_humidity;BME280_pressure;Samples;Min_cycle;Max_cycle;Signal;HPM_P1;HPM_P2
2021/01/25 00:01:05;;;;;;;8.02;5.68;;;0.40;99.90;;;;;;5035547;28;20352;-80
2021/01/25 00:03:33;;;;;;;12.13;5.20;;;0.50;99.90;;;;;;5033489;28;20574;-80
2021/01/25 00:05:59;;;;;;;5.43;4.30;;;0.50;99.90;;;;;;5034247;28;20260;-85
2021/01/25 00:08:26;;;;;;;7.40;4.80;;;0.60;99.90;;;;;;5034377;28;20526;-80
2021/01/25 00:10:53;;;;;;;7.60;4.05;;;0.60;99.90;;;;;;5034936;28;20260;-80
2021/01/25 00:13:19;;;;;;;4.90;3.47;;;0.70;99.90;;;;;;5034533;28;20207;-81
2021/01/25 00:15:48;;;;;;;3.95;3.55;;;0.80;99.90;;;;;;5034659;28;20198;-80
2021/01/25 00:18:14;;;;;;;6.50;3.40;;;0.80;99.90;;;;;;5032826;28;20207;-79
2021/01/25 00:20:42;;;;;;;3.50;2.75;;;0.80;99.90;;;;;;5034269;28;20214;-80
2021/01/25 00:23:08;;;;;;;6.50;3.67;;;0.90;99.90;;;;;;5034892;28;20665;-87
2021/01/25 00:25:34;;;;;;;6.50;4.75;;;0.90;99.90;;;;;;5034525;28;20285;-83
2021/01/25 00:28:01;;;;;;;3.58;3.03;;;1.00;99.90;;;;;;5034368;28;20265;-82
2021/01/25 00:30:27;;;;;;;5.50;3.78;;;0.90;99.90;;;;;;5033798;28;20273;-80
2021/01/25 00:32:55;;;;;;;4.55;3.67;;;0.90;99.90;;;;;;5032462;28;20207;-79
2021/01/25 00:35:21;;;;;;;4.65;4.18;;;0.90;99.90;;;;;;5032893;28;20673;-79
2021/01/25 00:37:49;;;;;;;7.50;5.07;;;0.90;99.90;;;;;;5033738;28;20210;-79
2021/01/25 00:40:15;;;;;;;8.13;5.07;;;0.90;99.90;;;;;;5034003;28;20230;-81
2021/01/25 00:42:42;;;;;;;7.75;3.88;;;0.90;99.90;;;;;;5033882;28;20730;-85
2021/01/25 00:45:09;;;;;;;5.95;3.58;;;0.90;99.90;;;;;;5034013;28;20260;-84
2021/01/25 00:47:36;;;;;;;6.50;4.30;;;0.80;99.90;;;;;;5033629;28;20242;-81
2021/01/25 00:50:04;;;;;;;5.30;3.78;;;0.80;99.90;;;;;;5032131;28;20325;-80
2021/01/25 00:52:30;;;;;;;4.72;3.80;;;0.80;99.90;;;;;;5033480;28;20734;-80
2021/01/25 00:54:57;;;;;;;3.20;2.90;;;0.80;99.90;;;;;;5033634;28;20299;-80
2021/01/25 00:57:24;;;;;;;2.25;1.77;;;0.80;99.90;;;;;;5033548;28;20234;-81
2021/01/25 00:59:50;;;;;;;2.33;2.13;;;0.80;99.90;;;;;;5033474;28;20321;-83
2021/01/25 01:02:16;;;;;;;3.08;2.13;;;0.80;99.90;;;;;;5032433;28;20601;-83
2021/01/25 01:04:43;;;;;;;6.50;2.50;;;0.90;99.90;;;;;;5032354;28;20341;-84
2021/01/25 01:07:09;;;;;;;3.42;1.60;;;0.90;99.90;;;;;;5033337;28;20293;-80
2021/01/25 01:09:35;;;;;;;3.20;2.35;;;1.00;99.90;;;;;;5033218;28;20260;-80
2021/01/25 01:12:03;;;;;;;7.85;2.75;;;1.00;99.90;;;;;;5033266;28;20735;-80
2021/01/25 01:14:29;;;;;;;3.65;3.33;;;1.10;99.90;;;;;;5033253;28;20229;-81
2021/01/25 01:16:56;;;;;;;3.50;3.20;;;1.00;99.90;;;;;;5032997;28;20297;-80
2021/01/25 01:19:22;;;;;;;6.68;4.43;;;1.00;99.90;;;;;;5032219;28;20234;-82
2021/01/25 01:21:49;;;;;;;4.75;2.95;;;0.90;99.90;;;;;;5033178;28;20210;-83
2021/01/25 01:24:16;;;;;;;3.10;2.80;;;0.80;99.90;;;;;;5033122;28;20207;-81
2021/01/25 01:26:42;;;;;;;3.95;2.90;;;0.80;99.90;;;;;;5033300;28;20245;-81
2021/01/25 01:29:10;;;;;;;3.42;2.75;;;0.90;99.90;;;;;;5032362;28;20214;-80
2021/01/25 01:31:36;;;;;;;5.35;3.50;;;0.90;99.90;;;;;;5032701;28;20221;-79
2021/01/25 01:34:04;;;;;;;5.60;3.60;;;1.00;99.90;;;;;;5013344;28;20641;-81
2021/01/25 01:36:30;;;;;;;2.70;2.50;;;1.00;99.90;;;;;;5033213;28;20203;-85
2021/01/25 01:38:56;;;;;;;2.70;2.50;;;1.00;99.90;;;;;;5031762;28;20234;-81
2021/01/25 01:41:23;;;;;;;4.63;3.80;;;1.00;99.90;;;;;;5033079;28;20286;-80
2021/01/25 01:43:49;;;;;;;3.95;3.58;;;1.00;99.90;;;;;;5031330;28;20364;-80
2021/01/25 01:46:16;;;;;;;5.35;3.58;;;0.90;99.90;;;;;;5031941;28;20252;-80
2021/01/25 01:48:43;;;;;;;4.05;2.75;;;0.90;99.90;;;;;;5030094;28;20285;-79
2021/01/25 01:51:10;;;;;;;6.97;3.55;;;0.80;99.90;;;;;;5032701;28;20231;-80
2021/01/25 01:53:36;;;;;;;7.68;3.75;;;0.70;99.90;;;;;;5032840;28;20738;-86
2021/01/25 01:56:03;;;;;;;3.10;2.78;;;0.60;99.90;;;;;;5032961;28;20303;-81
2021/01/25 01:58:31;;;;;;;4.88;2.92;;;0.50;99.90;;;;;;5041122;28;20673;-80
2021/01/25 02:00:57;;;;;;;5.03;3.38;;;0.40;99.90;;;;;;5072731;28;20293;-80
2021/01/25 02:03:24;;;;;;;3.50;2.67;;;0.40;99.90;;;;;;5071516;28;20252;-81
2021/01/25 02:05:52;;;;;;;5.57;3.70;;;0.30;99.90;;;;;;5072795;28;20201;-79
2021/01/25 02:08:19;;;;;;;3.22;2.92;;;0.30;99.90;;;;;;5072076;28;20208;-79
2021/01/25 02:10:47;;;;;;;6.15;3.00;;;0.30;99.90;;;;;;5072561;28;20228;-79
2021/01/25 02:13:14;;;;;;;3.08;2.75;;;0.30;99.90;;;;;;5072895;28;20288;-83
2021/01/25 02:15:41;;;;;;;4.97;3.10;;;0.40;99.90;;;;;;5073001;28;20676;-81
2021/01/25 02:18:07;;;;;;;4.25;2.53;;;0.40;99.90;;;;;;5071309;28;20320;-83
2021/01/25 02:20:37;;;;;;;3.40;2.70;;;0.40;99.90;;;;;;5072609;28;20205;-80
2021/01/25 02:23:26;;;;;;;3.40;2.75;;;0.40;99.90;;;;;;5072662;28;20294;-79
2021/01/25 02:26:04;;;;;;;2.50;2.30;;;0.40;99.90;;;;;;5072627;28;20292;-79
2021/01/25 02:28:31;;;;;;;3.58;2.80;;;0.40;99.90;;;;;;5072577;28;20205;-80
2021/01/25 02:30:59;;;;;;;3.50;2.60;;;0.40;99.90;;;;;;5074075;28;20233;-82
2021/01/25 02:33:27;;;;;;;2.53;2.13;;;0.40;99.90;;;;;;5071693;28;20206;-85
2021/01/25 02:35:54;;;;;;;7.03;3.47;;;0.40;99.90;;;;;;5072938;28;20288;-82
2021/01/25 02:38:21;;;;;;;4.80;3.25;;;0.50;99.90;;;;;;5072566;28;20306;-82
2021/01/25 02:40:51;;;;;;;3.53;2.70;;;0.50;99.90;;;;;;5074249;28;20205;-80
2021/01/25 02:43:18;;;;;;;2.95;2.65;;;0.50;99.90;;;;;;5076170;28;20717;-79
2021/01/25 02:45:47;;;;;;;6.90;2.97;;;0.60;99.90;;;;;;5076455;28;20663;-79
2021/01/25 02:48:14;;;;;;;3.33;2.75;;;0.60;99.90;;;;;;5074410;28;20733;-87
2021/01/25 02:50:48;;;;;;;3.38;3.08;;;0.50;99.90;;;;;;5077126;28;20666;-85
2021/01/25 02:53:14;;;;;;;3.22;2.95;;;0.50;99.90;;;;;;5078408;28;20511;-84
2021/01/25 02:55:41;;;;;;;7.00;3.80;;;0.60;99.90;;;;;;5087652;28;20247;-79
2021/01/25 02:58:08;;;;;;;3.10;2.80;;;0.60;99.90;;;;;;5089818;28;20233;-79
2021/01/25 03:00:35;;;;;;;4.47;3.60;;;0.60;99.90;;;;;;5080493;28;20296;-79
2021/01/25 03:03:02;;;;;;;7.63;3.20;;;0.60;99.90;;;;;;5075082;28;20288;-80
2021/01/25 03:05:31;;;;;;;5.05;2.65;;;0.70;99.90;;;;;;5092492;28;20201;-85
2021/01/25 03:07:57;;;;;;;3.55;3.25;;;0.70;99.90;;;;;;5098364;28;20216;-80
2021/01/25 03:10:23;;;;;;;3.95;2.90;;;0.70;99.90;;;;;;5094481;28;20264;-81
2021/01/25 03:12:51;;;;;;;2.35;2.17;;;0.80;99.90;;;;;;5078319;28;20241;-81
2021/01/25 03:15:19;;;;;;;3.25;2.13;;;0.80;99.90;;;;;;5068782;28;20198;-81
2021/01/25 03:17:45;;;;;;;3.97;2.10;;;0.90;99.90;;;;;;5072428;28;20647;-80
2021/01/25 03:20:12;;;;;;;2.40;2.20;;;0.90;99.90;;;;;;5074396;28;20209;-79
2021/01/25 03:22:39;;;;;;;4.22;2.88;;;1.00;99.90;;;;;;5075385;28;20237;-79
2021/01/25 03:25:06;;;;;;;3.47;2.63;;;1.00;99.90;;;;;;5075944;28;20399;-87
2021/01/25 03:27:33;;;;;;;4.15;2.58;;;0.90;99.90;;;;;;5075422;28;20212;-83
2021/01/25 03:29:59;;;;;;;3.70;3.40;;;1.00;99.90;;;;;;5075429;28;20229;-81
2021/01/25 03:32:25;;;;;;;3.88;3.45;;;0.90;99.90;;;;;;5074931;28;20609;-80
2021/01/25 03:34:52;;;;;;;3.75;2.85;;;0.90;99.90;;;;;;5073996;28;20205;-79
2021/01/25 03:37:19;;;;;;;3.50;2.90;;;0.90;99.90;;;;;;5075108;28;20293;-80
2021/01/25 03:39:45;;;;;;;4.63;2.80;;;0.80;99.90;;;;;;5073868;28;20304;-78
2021/01/25 03:42:12;;;;;;;2.67;2.47;;;0.70;99.90;;;;;;5075107;28;20204;-86
2021/01/25 03:44:38;;;;;;;5.75;3.60;;;0.70;99.90;;;;;;5075211;28;20250;-84
2021/01/25 03:47:04;;;;;;;3.95;2.30;;;0.60;99.90;;;;;;5074564;28;20237;-80
2021/01/25 03:49:31;;;;;;;3.50;2.95;;;0.60;99.90;;;;;;5073593;28;20198;-83
2021/01/25 03:51:57;;;;;;;4.30;2.90;;;0.60;99.90;;;;;;5074270;28;20761;-78
2021/01/25 03:54:26;;;;;;;2.67;2.05;;;0.60;99.90;;;;;;5074539;28;20254;-78
2021/01/25 03:56:52;;;;;;;3.20;2.90;;;0.70;99.90;;;;;;5074683;28;20695;-79
2021/01/25 03:59:18;;;;;;;3.38;2.22;;;0.60;99.90;;;;;;5074209;28;20759;-78
2021/01/25 04:01:45;;;;;;;6.80;3.75;;;0.60;99.90;;;;;;5073649;28;20292;-78
2021/01/25 04:04:11;;;;;;;4.07;3.50;;;0.60;99.90;;;;;;5072589;28;20292;-80
2021/01/25 04:06:37;;;;;;;3.42;2.80;;;0.60;99.90;;;;;;5074493;28;20603;-77
2021/01/25 04:09:05;;;;;;;6.65;3.15;;;0.60;99.90;;;;;;5074191;28;20296;-79
2021/01/25 04:11:32;;;;;;;3.28;2.83;;;0.60;99.90;;;;;;5074128;28;20287;-78
2021/01/25 04:13:59;;;;;;;3.30;2.55;;;0.60;99.90;;;;;;5073959;28;20208;-77
2021/01/25 04:16:25;;;;;;;5.22;4.43;;;0.60;99.90;;;;;;5074188;28;20205;-78
2021/01/25 04:18:54;;;;;;;3.45;2.58;;;0.70;99.90;;;;;;5072781;28;20225;-80
2021/01/25 04:21:20;;;;;;;5.03;2.50;;;0.70;99.90;;;;;;5074401;28;20205;-79
2021/01/25 04:23:47;;;;;;;4.47;2.75;;;0.70;99.90;;;;;;5074756;28;20202;-79
2021/01/25 04:26:15;;;;;;;3.85;2.80;;;0.70;99.90;;;;;;5075377;28;20344;-78
2021/01/25 04:28:43;;;;;;;5.00;2.58;;;0.70;99.90;;;;;;5040105;28;20726;-78
2021/01/25 04:31:09;;;;;;;4.70;3.25;;;0.70;99.90;;;;;;5083601;28;20324;-78
2021/01/25 04:33:36;;;;;;;3.63;2.35;;;0.70;99.90;;;;;;5073290;28;20209;-78
2021/01/25 04:36:02;;;;;;;4.20;3.10;;;0.70;99.90;;;;;;5074674;28;20295;-81
2021/01/25 04:38:29;;;;;;;3.47;2.90;;;0.70;99.90;;;;;;5084101;28;20683;-81
2021/01/25 04:40:55;;;;;;;4.38;3.25;;;0.70;99.90;;;;;;5074021;28;20209;-83
2021/01/25 04:43:22;;;;;;;4.80;3.05;;;0.70;99.90;;;;;;5073774;28;20204;-81
2021/01/25 04:45:49;;;;;;;3.00;2.65;;;0.70;99.90;;;;;;5074350;28;20292;-82
2021/01/25 04:48:16;;;;;;;3.75;2.65;;;0.70;99.90;;;;;;5037940;28;20209;-80
2021/01/25 04:50:44;;;;;;;4.63;2.85;;;0.70;99.90;;;;;;5073669;28;20233;-79
2021/01/25 04:53:11;;;;;;;3.97;3.53;;;0.70;99.90;;;;;;5073553;28;20209;-78
2021/01/25 04:55:39;;;;;;;5.25;3.42;;;0.80;99.90;;;;;;5073873;28;20212;-81
2021/01/25 04:58:05;;;;;;;3.65;3.08;;;0.80;99.90;;;;;;5070780;28;20210;-82
2021/01/25 05:00:32;;;;;;;6.85;3.47;;;0.80;99.90;;;;;;5073635;28;20300;-85
2021/01/25 05:02:59;;;;;;;5.25;4.20;;;0.70;99.90;;;;;;5072910;28;20300;-84
2021/01/25 05:05:25;;;;;;;3.80;3.20;;;0.70;99.90;;;;;;5073508;28;20304;-83
2021/01/25 05:07:52;;;;;;;4.80;3.70;;;0.80;99.90;;;;;;5076908;28;20244;-85
2021/01/25 05:10:19;;;;;;;7.70;3.90;;;0.80;99.90;;;;;;5073118;28;20316;-86
2021/01/25 05:12:46;;;;;;;8.93;4.38;;;0.80;99.90;;;;;;5071010;28;20209;-91
2021/01/25 05:15:25;;;;;;;5.05;3.25;;;0.80;99.90;;;;;;5077026;28;20209;-89
2021/01/25 05:17:53;;;;;;;3.55;3.25;;;0.80;99.90;;;;;;5075142;28;20201;-88
2021/01/25 05:20:27;;;;;;;6.25;4.50;;;0.80;99.90;;;;;;5072662;28;20244;-89
2021/01/25 05:22:54;;;;;;;4.90;4.25;;;0.80;99.90;;;;;;5075509;28;20292;-88
2021/01/25 05:25:28;;;;;;;7.50;4.45;;;0.80;99.90;;;;;;5076555;28;20296;-88
2021/01/25 05:27:56;;;;;;;5.95;4.68;;;0.80;99.90;;;;;;5076169;28;20301;-88
2021/01/25 05:30:23;;;;;;;9.00;4.63;;;0.70;99.90;;;;;;5077491;28;20229;-90
2021/01/25 05:32:51;;;;;;;6.72;4.35;;;0.70;99.90;;;;;;5076513;28;20712;-86
2021/01/25 05:35:19;;;;;;;5.22;3.80;;;0.60;99.90;;;;;;5074785;28;20672;-90
2021/01/25 05:37:53;;;;;;;6.20;4.30;;;0.70;99.90;;;;;;5074566;28;20237;-86
2021/01/25 05:40:22;;;;;;;4.68;3.50;;;0.70;99.90;;;;;;5075519;28;20284;-85
2021/01/25 05:42:48;;;;;;;5.78;5.00;;;0.70;99.90;;;;;;5074255;28;20205;-84
2021/01/25 05:45:16;;;;;;;5.47;4.35;;;0.70;99.90;;;;;;5073814;28;20209;-84
2021/01/25 05:47:50;;;;;;;8.98;4.93;;;0.70;99.90;;;;;;5073429;28;20201;-84
2021/01/25 05:50:33;;;;;;;5.47;4.57;;;0.70;99.90;;;;;;5066871;28;20324;-85
2021/01/25 05:53:03;;;;;;;5.47;4.90;;;0.70;99.90;;;;;;5073190;28;20288;-86
2021/01/25 05:55:30;;;;;;;5.30;4.25;;;0.70;99.90;;;;;;5073742;28;20313;-84
2021/01/25 05:57:57;;;;;;;6.95;4.70;;;0.70;99.90;;;;;;5072889;28;20288;-83
2021/01/25 06:00:25;;;;;;;8.32;4.25;;;0.70;99.90;;;;;;5066373;28;20210;-81
2021/01/25 06:02:53;;;;;;;5.88;4.57;;;0.70;99.90;;;;;;5052874;28;20720;-82
2021/01/25 06:05:33;;;;;;;4.95;4.43;;;0.70;99.90;;;;;;5053290;28;20210;-83
2021/01/25 06:08:19;;;;;;;6.18;5.60;;;0.80;99.90;;;;;;5054393;28;20206;-84
2021/01/25 06:11:01;;;;;;;6.13;5.10;;;0.80;99.90;;;;;;5060132;28;20293;-85
2021/01/25 06:13:36;;;;;;;7.60;5.28;;;0.80;99.90;;;;;;5056202;28;20229;-83
2021/01/25 06:16:06;;;;;;;5.90;5.00;;;0.80;99.90;;;;;;5058165;28;20202;-84
2021/01/25 06:18:33;;;;;;;8.57;6.00;;;0.80;99.90;;;;;;5073612;28;20270;-82
2021/01/25 06:21:04;;;;;;;8.13;4.75;;;0.80;99.90;;;;;;5078142;28;20288;-83
2021/01/25 06:23:33;;;;;;;5.88;5.28;;;0.80;99.90;;;;;;5076792;28;20265;-82
2021/01/25 06:25:59;;;;;;;6.60;6.00;;;0.80;99.90;;;;;;5074375;28;20399;-87
2021/01/25 06:28:27;;;;;;;7.70;5.78;;;0.80;99.90;;;;;;5079467;28;20302;-84
2021/01/25 06:30:56;;;;;;;7.95;5.55;;;0.80;99.90;;;;;;5078012;28;20331;-87
2021/01/25 06:33:23;;;;;;;7.55;5.10;;;0.90;99.90;;;;;;5076379;28;20241;-84
2021/01/25 06:35:51;;;;;;;7.18;5.53;;;0.90;99.90;;;;;;5076600;28;20284;-83
2021/01/25 06:38:19;;;;;;;8.40;7.45;;;0.80;99.90;;;;;;5076373;28;20248;-84
2021/01/25 06:40:49;;;;;;;9.70;6.82;;;0.80;99.90;;;;;;5080097;28;20354;-93
2021/01/25 06:43:17;;;;;;;12.00;6.55;;;0.90;99.90;;;;;;5082113;28;20264;-86
2021/01/25 06:45:45;;;;;;;14.70;8.82;;;0.90;99.90;;;;;;5081869;28;20201;-82
2021/01/25 06:48:13;;;;;;;7.07;6.20;;;0.90;99.90;;;;;;5080786;28;20236;-86
2021/01/25 06:50:42;;;;;;;9.93;7.53;;;0.90;99.90;;;;;;5078350;28;20233;-81
2021/01/25 06:53:09;;;;;;;8.43;6.53;;;0.90;99.90;;;;;;5076485;28;20225;-82
2021/01/25 06:55:35;;;;;;;7.20;6.10;;;0.90;99.90;;;;;;5076284;28;20291;-82
2021/01/25 06:58:05;;;;;;;13.43;6.80;;;0.90;99.90;;;;;;5076945;28;20209;-83
2021/01/25 07:00:33;;;;;;;11.85;8.70;;;0.80;99.90;;;;;;5077370;28;20308;-86
2021/01/25 07:03:03;;;;;;;11.70;7.60;;;0.80;99.90;;;;;;5076721;28;20206;-83
2021/01/25 07:05:31;;;;;;;9.65;7.80;;;0.80;99.90;;;;;;5077850;28;20300;-85
2021/01/25 07:08:17;;;;;;;10.95;7.80;;;0.80;99.90;;;;;;5025991;28;20636;-83
2021/01/25 07:11:06;;;;;;;7.57;6.57;;;0.80;99.90;;;;;;5061824;28;20221;-83
2021/01/25 07:13:35;;;;;;;12.90;7.32;;;0.80;99.90;;;;;;5081754;28;20210;-82
2021/01/25 07:16:02;;;;;;;11.57;6.88;;;0.80;99.90;;;;;;5078497;28;20221;-83
2021/01/25 07:18:29;;;;;;;9.27;6.55;;;0.90;99.90;;;;;;5087644;28;20206;-83
2021/01/25 07:20:58;;;;;;;8.27;7.45;;;0.90;99.90;;;;;;5098474;28;20225;-83
2021/01/25 07:23:25;;;;;;;11.05;6.47;;;1.00;99.90;;;;;;5097100;28;20208;-83
2021/01/25 07:25:56;;;;;;;8.02;6.63;;;1.00;99.90;;;;;;5083495;28;20288;-82
2021/01/25 07:28:23;;;;;;;11.88;7.20;;;1.00;99.90;;;;;;5076819;28;20212;-81
2021/01/25 07:30:52;;;;;;;13.25;8.43;;;1.10;99.90;;;;;;5075894;28;20274;-81
2021/01/25 07:33:19;;;;;;;9.35;6.93;;;1.20;99.90;;;;;;5086221;28;20320;-82
2021/01/25 07:35:45;;;;;;;12.25;7.80;;;1.20;99.90;;;;;;5095501;28;20381;-84
2021/01/25 07:38:12;;;;;;;13.82;7.85;;;1.20;99.90;;;;;;5095551;28;20207;-86
2021/01/25 07:40:39;;;;;;;12.32;8.85;;;1.30;99.90;;;;;;5095270;28;20197;-85
2021/01/25 07:43:06;;;;;;;12.20;8.93;;;1.40;99.90;;;;;;5095274;28;20303;-82
2021/01/25 07:45:33;;;;;;;12.05;8.65;;;1.30;99.90;;;;;;5095186;28;20280;-83
2021/01/25 07:48:00;;;;;;;11.77;7.20;;;1.50;99.90;;;;;;5093809;28;20296;-81
2021/01/25 07:50:26;;;;;;;10.15;6.95;;;1.50;99.90;;;;;;5095144;28;20366;-82
2021/01/25 07:53:00;;;;;;;11.70;7.28;;;1.50;99.90;;;;;;5093679;28;20267;-88
2021/01/25 07:55:27;;;;;;;10.55;8.18;;;1.60;99.90;;;;;;5095383;28;20243;-84
2021/01/25 07:57:55;;;;;;;11.27;8.05;;;1.60;99.90;;;;;;5095093;28;20576;-85
2021/01/25 08:00:23;;;;;;;11.88;7.53;;;1.60;99.90;;;;;;5094970;28;20235;-82
2021/01/25 08:02:55;;;;;;;9.30;7.50;;;1.70;99.90;;;;;;5082201;28;20533;-81
2021/01/25 08:05:24;;;;;;;13.60;8.60;;;1.80;99.90;;;;;;5072672;28;20509;-82
2021/01/25 08:07:58;;;;;;;9.27;7.45;;;1.80;99.90;;;;;;5076394;28;20292;-87
2021/01/25 08:10:24;;;;;;;10.45;8.10;;;1.90;99.90;;;;;;5076288;28;20665;-90
2021/01/25 08:12:52;;;;;;;12.60;8.95;;;2.00;99.90;;;;;;5075987;28;20208;-84
2021/01/25 08:15:26;;;;;;;12.48;10.18;;;2.00;99.90;;;;;;5070853;28;20680;-84
2021/01/25 08:17:58;;;;;;;16.20;9.68;;;2.10;99.90;;;;;;5066065;28;20204;-85
2021/01/25 08:20:29;;;;;;;13.35;10.60;;;2.30;99.90;;;;;;5071606;28;20296;-83
2021/01/25 08:22:58;;;;;;;15.00;8.30;;;2.30;99.90;;;;;;5071123;28;20251;-84
2021/01/25 08:25:26;;;;;;;13.45;9.05;;;2.40;99.90;;;;;;5074200;28;20669;-85
2021/01/25 08:28:01;;;;;;;10.35;7.50;;;2.50;99.90;;;;;;5074231;28;20292;-90
2021/01/25 08:30:38;;;;;;;9.52;7.97;;;2.30;99.90;;;;;;5073413;28;20236;-85
2021/01/25 08:33:06;;;;;;;7.13;6.43;;;2.10;99.90;;;;;;5073053;28;20205;-87
2021/01/25 08:35:35;;;;;;;7.93;6.50;;;2.10;99.90;;;;;;5075062;28;20229;-86
2021/01/25 08:38:10;;;;;;;7.93;6.20;;;2.10;99.90;;;;;;5074801;28;20236;-85
2021/01/25 08:40:38;;;;;;;8.07;5.72;;;2.00;99.90;;;;;;5075141;28;20291;-83
2021/01/25 08:43:06;;;;;;;8.43;7.10;;;1.90;99.90;;;;;;5075780;28;20208;-84
2021/01/25 08:45:33;;;;;;;7.05;5.65;;;1.80;99.90;;;;;;5075903;28;20288;-85
2021/01/25 08:48:06;;;;;;;10.60;6.97;;;1.80;99.90;;;;;;5073829;28;20635;-84
2021/01/25 08:50:33;;;;;;;9.98;5.72;;;1.90;99.90;;;;;;5074225;28;20240;-86
2021/01/25 08:53:01;;;;;;;9.02;6.18;;;1.90;99.90;;;;;;5074690;28;20237;-86
2021/01/25 08:55:30;;;;;;;5.13;4.63;;;1.90;99.90;;;;;;5075182;28;20207;-87
2021/01/25 08:57:58;;;;;;;9.35;5.75;;;1.90;99.90;;;;;;5073578;28;20224;-84
2021/01/25 09:00:34;;;;;;;7.75;6.00;;;1.90;99.90;;;;;;5074521;28;20236;-85
2021/01/25 09:03:04;;;;;;;5.88;4.65;;;1.90;99.90;;;;;;5073561;28;20201;-85
2021/01/25 09:05:31;;;;;;;7.93;5.78;;;2.00;99.90;;;;;;5069657;28;20581;-87
2021/01/25 09:07:58;;;;;;;9.13;6.68;;;1.90;99.90;;;;;;5074778;28;20237;-83
2021/01/25 09:10:25;;;;;;;11.88;7.53;;;1.90;99.90;;;;;;5075370;28;20317;-84
2021/01/25 09:12:52;;;;;;;10.57;7.63;;;1.90;99.90;;;;;;5074833;28;20243;-86
2021/01/25 09:15:20;;;;;;;14.48;9.77;;;2.00;99.90;;;;;;5073814;28;20632;-85
2021/01/25 09:17:47;;;;;;;11.98;10.15;;;2.00;99.90;;;;;;5080498;28;20221;-90
2021/01/25 09:20:15;;;;;;;14.40;10.30;;;1.80;99.90;;;;;;5065706;28;20198;-88
2021/01/25 09:22:43;;;;;;;9.65;7.38;;;1.90;99.90;;;;;;5067096;28;20213;-84
2021/01/25 09:25:12;;;;;;;11.77;9.45;;;2.10;99.90;;;;;;5049730;28;20206;-80
2021/01/25 09:27:39;;;;;;;10.73;8.80;;;2.20;99.90;;;;;;5053263;28;20206;-84
2021/01/25 09:30:07;;;;;;;11.20;8.77;;;2.10;99.90;;;;;;5051064;28;20645;-84
2021/01/25 09:32:34;;;;;;;10.77;8.20;;;2.10;99.90;;;;;;5067750;28;20198;-84
2021/01/25 09:35:00;;;;;;;8.60;7.80;;;2.10;99.90;;;;;;5074935;28;20267;-87
2021/01/25 09:37:30;;;;;;;10.45;8.50;;;2.10;99.90;;;;;;5074813;28;20343;-87
2021/01/25 09:39:59;;;;;;;10.70;7.85;;;2.10;99.90;;;;;;5070491;28;20208;-86
2021/01/25 09:42:26;;;;;;;11.82;8.82;;;2.20;99.90;;;;;;5069830;28;20213;-82
2021/01/25 09:44:52;;;;;;;8.50;6.40;;;2.30;99.90;;;;;;5073548;28;20297;-83
2021/01/25 09:47:18;;;;;;;8.20;6.47;;;2.20;99.90;;;;;;5074484;28;20236;-84
2021/01/25 09:49:45;;;;;;;7.47;6.35;;;2.20;99.90;;;;;;5078782;28;20216;-81
2021/01/25 09:52:12;;;;;;;6.55;5.85;;;2.20;99.90;;;;;;5080169;28;20240;-86
2021/01/25 09:54:40;;;;;;;7.57;6.00;;;2.10;99.90;;;;;;5098189;28;20225;-82
2021/01/25 09:57:07;;;;;;;7.90;6.72;;;2.20;99.90;;;;;;5092152;28;20201;-83
2021/01/25 09:59:33;;;;;;;11.20;8.73;;;2.40;99.90;;;;;;5094830;28;20255;-83
2021/01/25 10:02:00;;;;;;;10.48;8.35;;;2.40;99.90;;;;;;5094770;28;20202;-82
2021/01/25 10:04:26;;;;;;;12.38;8.52;;;2.30;99.90;;;;;;5080448;28;20228;-82
2021/01/25 10:06:53;;;;;;;8.82;7.93;;;2.30;99.90;;;;;;5073234;28;21013;-83
2021/01/25 10:09:19;;;;;;;8.65;7.00;;;2.30;99.90;;;;;;5078280;28;20936;-83
2021/01/25 10:11:46;;;;;;;9.48;6.75;;;2.30;99.90;;;;;;5079066;28;20700;-82
2021/01/25 10:14:12;;;;;;;13.90;7.75;;;2.40;99.90;;;;;;5078025;28;20284;-81
2021/01/25 10:16:39;;;;;;;10.02;7.40;;;2.40;99.90;;;;;;5074718;28;20194;-83
2021/01/25 10:19:06;;;;;;;11.90;7.05;;;2.50;99.90;;;;;;5077991;28;20240;-82
2021/01/25 10:21:34;;;;;;;9.50;7.35;;;2.40;99.90;;;;;;5079132;28;20282;-81
2021/01/25 10:24:00;;;;;;;8.32;7.55;;;2.40;99.90;;;;;;5077851;28;20712;-82
2021/01/25 10:26:27;;;;;;;9.00;8.10;;;2.40;99.90;;;;;;5078569;28;20197;-82
2021/01/25 10:28:54;;;;;;;11.02;7.15;;;2.60;99.90;;;;;;5077337;28;20238;-81
2021/01/25 10:31:20;;;;;;;10.52;6.95;;;2.60;99.90;;;;;;5076566;28;20684;-82
2021/01/25 10:33:47;;;;;;;8.13;6.93;;;2.80;99.90;;;;;;5075510;28;20201;-83
2021/01/25 10:36:13;;;;;;;13.63;6.50;;;2.90;99.90;;;;;;5076856;28;20194;-83
2021/01/25 10:38:40;;;;;;;6.70;6.10;;;2.90;99.90;;;;;;5078346;28;20285;-83
2021/01/25 10:41:06;;;;;;;7.05;6.22;;;2.90;99.90;;;;;;5078628;28;20201;-85
2021/01/25 10:43:33;;;;;;;8.45;7.05;;;3.20;99.90;;;;;;5076763;28;20200;-85
2021/01/25 10:46:00;;;;;;;7.85;6.05;;;3.40;99.90;;;;;;5077124;28;20276;-83
2021/01/25 10:48:27;;;;;;;7.43;6.57;;;3.50;99.90;;;;;;5075874;28;20201;-81
2021/01/25 10:50:53;;;;;;;6.53;5.88;;;3.70;99.90;;;;;;5076774;28;21023;-82
2021/01/25 10:53:20;;;;;;;7.45;6.35;;;3.80;99.90;;;;;;5076664;28;20232;-81
2021/01/25 10:55:46;;;;;;;7.03;6.35;;;3.70;99.90;;;;;;5077759;28;20203;-83
2021/01/25 10:58:13;;;;;;;8.10;6.93;;;3.70;99.90;;;;;;5077907;28;20280;-83
2021/01/25 11:00:39;;;;;;;13.15;6.50;;;3.90;99.90;;;;;;5076740;28;20284;-83
2021/01/25 11:03:07;;;;;;;6.40;5.75;;;3.90;99.90;;;;;;5073631;28;20209;-81
2021/01/25 11:05:35;;;;;;;8.25;6.20;;;3.80;99.90;;;;;;5074268;28;20259;-83
2021/01/25 11:08:01;;;;;;;6.40;5.65;;;4.00;99.90;;;;;;5074036;28;20198;-81
2021/01/25 11:10:28;;;;;;;6.95;6.28;;;4.10;99.90;;;;;;5074039;28;20266;-85
2021/01/25 11:12:55;;;;;;;8.10;6.15;;;4.20;99.90;;;;;;5075649;28;20233;-84
2021/01/25 11:15:23;;;;;;;7.63;6.70;;;4.50;99.90;;;;;;5073610;28;20197;-82
2021/01/25 11:17:50;;;;;;;7.40;6.68;;;4.70;99.90;;;;;;5081249;28;20265;-81
2021/01/25 11:20:18;;;;;;;7.75;7.05;;;4.70;99.90;;;;;;5070050;28;20205;-80
2021/01/25 11:22:45;;;;;;;9.07;6.57;;;4.70;99.90;;;;;;5067157;28;20194;-81
2021/01/25 11:25:13;;;;;;;6.80;6.03;;;4.50;99.90;;;;;;5062316;28;21035;-82
2021/01/25 11:27:39;;;;;;;6.87;5.77;;;4.60;99.90;;;;;;5063592;28;20915;-82
2021/01/25 11:30:08;;;;;;;8.02;6.47;;;4.60;99.90;;;;;;5061372;28;20455;-82
2021/01/25 11:32:36;;;;;;;9.73;5.63;;;4.30;99.90;;;;;;5070836;28;20221;-82
2021/01/25 11:35:06;;;;;;;10.10;7.07;;;4.10;99.90;;;;;;5078595;28;20209;-86
2021/01/25 11:37:34;;;;;;;7.63;6.10;;;4.10;99.90;;;;;;5090005;28;20232;-86
2021/01/25 11:40:00;;;;;;;7.97;6.22;;;4.30;99.90;;;;;;5072392;28;20437;-88
2021/01/25 11:42:27;;;;;;;9.23;7.40;;;4.10;99.90;;;;;;5068212;28;20284;-88
2021/01/25 11:44:53;;;;;;;7.45;6.13;;;4.00;99.90;;;;;;5063868;28;20195;-82
2021/01/25 11:47:20;;;;;;;10.48;7.72;;;4.20;99.90;;;;;;5061070;28;20332;-87
2021/01/25 11:49:46;;;;;;;10.82;7.25;;;4.40;99.90;;;;;;5063488;28;20529;-91
2021/01/25 11:52:13;;;;;;;11.03;7.30;;;4.40;99.90;;;;;;5062675;28;20236;-92
2021/01/25 11:54:41;;;;;;;8.05;6.88;;;4.20;99.90;;;;;;5061555;28;20542;-91
2021/01/25 11:57:07;;;;;;;12.23;7.45;;;4.20;99.90;;;;;;5067224;28;20242;-91
2021/01/25 11:59:34;;;;;;;8.40;6.60;;;4.20;99.90;;;;;;5059317;28;20293;-88
2021/01/25 12:02:00;;;;;;;9.10;7.43;;;4.20;99.90;;;;;;5065345;28;20190;-83
2021/01/25 12:04:27;;;;;;;10.50;6.50;;;4.50;99.90;;;;;;5055297;28;20524;-85
2021/01/25 12:06:53;;;;;;;11.50;8.85;;;4.40;99.90;;;;;;5055819;28;20220;-85
2021/01/25 12:09:20;;;;;;;14.48;7.15;;;4.70;99.90;;;;;;5056337;28;20200;-86
2021/01/25 12:11:48;;;;;;;6.17;5.43;;;4.80;99.90;;;;;;5055906;28;20590;-90
2021/01/25 12:14:16;;;;;;;8.60;5.90;;;4.90;99.90;;;;;;5058026;28;20532;-92
2021/01/25 12:16:43;;;;;;;15.90;7.53;;;5.30;99.90;;;;;;5063107;28;20236;-94
2021/01/25 12:19:11;;;;;;;4.97;4.05;;;5.10;99.90;;;;;;5055814;28;20237;-87
2021/01/25 12:21:37;;;;;;;6.93;5.05;;;4.90;99.90;;;;;;5057469;28;20265;-91
2021/01/25 12:24:04;;;;;;;6.70;4.85;;;5.30;99.90;;;;;;5065508;28;20334;-84
2021/01/25 12:26:31;;;;;;;4.28;3.88;;;5.00;99.90;;;;;;5055017;28;20203;-87
2021/01/25 12:28:59;;;;;;;4.07;3.40;;;4.40;99.90;;;;;;5059793;28;20233;-86
2021/01/25 12:31:27;;;;;;;2.50;2.10;;;4.80;99.90;;;;;;5058000;28;20249;-85
2021/01/25 12:33:54;;;;;;;2.15;1.83;;;5.00;99.90;;;;;;5056393;28;20205;-86
2021/01/25 12:36:23;;;;;;;2.00;1.80;;;4.90;99.90;;;;;;5057007;28;20190;-88
2021/01/25 12:38:50;;;;;;;4.47;2.05;;;5.10;99.90;;;;;;5056823;28;20197;-88
2021/01/25 12:41:16;;;;;;;2.53;1.70;;;5.30;99.90;;;;;;5057322;28;20230;-86
2021/01/25 12:43:43;;;;;;;1.23;1.13;;;5.10;99.90;;;;;;5057501;28;20649;-84
2021/01/25 12:46:10;;;;;;;2.17;1.50;;;4.80;99.90;;;;;;5054813;28;20241;-85
2021/01/25 12:48:37;;;;;;;2.50;1.30;;;4.70;99.90;;;;;;5059271;28;20700;-82
2021/01/25 12:51:05;;;;;;;1.48;1.20;;;4.90;99.90;;;;;;5002414;28;20319;-85
2021/01/25 12:53:31;;;;;;;1.23;0.93;;;4.80;99.90;;;;;;5000469;28;20586;-84
2021/01/25 12:55:58;;;;;;;1.42;1.33;;;5.20;99.90;;;;;;4997253;28;20279;-84
2021/01/25 12:58:24;;;;;;;1.30;1.20;;;5.20;99.90;;;;;;5003251;28;20609;-85